createdAt,value
2018-09-21T00:00:48.079Z,10.47
2018-09-21T00:04:21.314Z,9.97
2018-09-21T00:07:54.534Z,11.43
2018-09-21T00:11:27.748Z,11.00
2018-09-21T00:15:00.983Z,11.30
2018-09-21T00:18:34.187Z,9.57
2018-09-21T00:22:07.387Z,9.97
2018-09-21T00:25:40.606Z,10.77
2018-09-21T00:29:16.956Z,11.00
2018-09-21T00:32:50.192Z,9.57
2018-09-21T00:36:23.424Z,10.83
2018-09-21T00:39:56.653Z,11.43
2018-09-21T00:43:29.872Z,9.77
2018-09-21T00:47:03.101Z,11.10
2018-09-21T00:50:36.374Z,10.93
2018-09-21T00:54:09.602Z,10.60
2018-09-21T00:57:42.819Z,11.87
2018-09-21T01:01:16.043Z,11.60
2018-09-21T01:04:49.284Z,10.97
2018-09-21T01:08:22.498Z,11.50
2018-09-21T01:11:55.767Z,11.70
2018-09-21T01:15:28.991Z,11.27
2018-09-21T01:19:02.427Z,11.43
2018-09-21T01:22:35.641Z,11.13
2018-09-21T01:26:08.861Z,13.37
2018-09-21T01:29:42.399Z,11.17
2018-09-21T01:33:15.628Z,10.97
2018-09-21T01:36:48.872Z,10.13
2018-09-21T01:40:22.106Z,12.33
2018-09-21T01:43:55.346Z,11.23
2018-09-21T01:47:28.594Z,13.10
2018-09-21T01:51:01.908Z,12.30
2018-09-21T01:54:35.140Z,13.57
2018-09-21T01:58:08.372Z,12.23
2018-09-21T02:01:41.612Z,13.50
2018-09-21T02:05:14.850Z,14.27
2018-09-21T02:08:48.080Z,12.00
2018-09-21T02:12:21.309Z,13.83
2018-09-21T02:15:54.548Z,14.40
2018-09-21T02:19:27.777Z,13.40
2018-09-21T02:23:01.012Z,14.27
2018-09-21T02:26:34.240Z,12.53
2018-09-21T02:30:07.484Z,16.07
2018-09-21T02:33:40.720Z,14.57
2018-09-21T02:37:13.944Z,14.67
2018-09-21T02:40:47.180Z,13.67
2018-09-21T02:44:20.396Z,15.60
2018-09-21T02:47:53.633Z,16.10
2018-09-21T02:51:26.873Z,15.13
2018-09-21T02:55:00.106Z,14.03
2018-09-21T02:58:33.329Z,15.47
2018-09-21T03:02:06.562Z,16.10
2018-09-21T03:05:39.797Z,15.53
2018-09-21T03:09:13.020Z,16.03
2018-09-21T03:12:46.311Z,15.80
2018-09-21T03:16:19.528Z,15.90
2018-09-21T03:19:52.754Z,16.37
2018-09-21T03:23:25.987Z,17.17
2018-09-21T03:26:59.216Z,16.47
2018-09-21T03:30:32.463Z,15.53
2018-09-21T03:34:05.707Z,17.10
2018-09-21T03:37:38.955Z,16.40
2018-09-21T03:41:12.205Z,16.53
2018-09-21T03:44:45.435Z,16.93
2018-09-21T03:48:18.671Z,17.40
2018-09-21T03:51:51.889Z,17.27
2018-09-21T03:55:25.112Z,17.30
2018-09-21T03:58:58.336Z,18.23
2018-09-21T04:02:31.577Z,18.03
2018-09-21T04:06:04.871Z,17.50
2018-09-21T04:09:38.087Z,18.40
2018-09-21T04:13:11.328Z,18.07
2018-09-21T04:16:44.557Z,18.00
2018-09-21T04:20:17.787Z,17.90
2018-09-21T04:23:51.039Z,17.63
2018-09-21T04:27:24.291Z,16.87
2018-09-21T04:30:57.540Z,15.77
2018-09-21T04:34:30.772Z,17.93
2018-09-21T04:38:04.026Z,16.70
2018-09-21T04:41:37.605Z,18.73
2018-09-21T04:45:10.815Z,17.30
2018-09-21T04:48:44.055Z,17.50
2018-09-21T04:52:17.316Z,17.30
2018-09-21T04:55:50.536Z,17.63
2018-09-21T04:59:23.776Z,17.87
2018-09-21T05:02:57.004Z,18.63
2018-09-21T05:06:30.236Z,15.73
2018-09-21T05:10:03.464Z,17.27
2018-09-21T05:13:36.740Z,18.37
2018-09-21T05:17:09.927Z,20.07
2018-09-21T05:20:43.168Z,19.60
2018-09-21T05:24:16.399Z,19.80
2018-09-21T05:27:49.653Z,28.43
2018-09-21T05:31:22.894Z,20.10
2018-09-21T05:34:56.128Z,19.13
2018-09-21T05:38:29.332Z,20.27
2018-09-21T05:42:02.564Z,21.63
2018-09-21T05:45:35.790Z,34.13
2018-09-21T05:49:09.299Z,20.97
2018-09-21T05:52:42.529Z,20.83
2018-09-21T05:56:15.762Z,19.33
2018-09-21T05:59:48.972Z,19.97
2018-09-21T06:03:22.212Z,20.53
2018-09-21T06:06:55.456Z,19.90
2018-09-21T06:10:28.673Z,18.67
2018-09-21T06:14:01.924Z,19.40
2018-09-21T06:17:35.176Z,20.67
2018-09-21T06:21:08.470Z,20.10
2018-09-21T06:24:41.656Z,21.40
2018-09-21T06:28:14.916Z,20.10
2018-09-21T06:31:48.193Z,19.80
2018-09-21T06:35:21.384Z,20.73
2018-09-21T06:38:54.645Z,18.90
2018-09-21T06:42:27.921Z,18.77
2018-09-21T06:46:01.102Z,19.40
2018-09-21T06:49:34.355Z,18.97
2018-09-21T06:53:07.596Z,20.10
2018-09-21T06:56:40.834Z,22.27
2018-09-21T07:00:14.056Z,18.43
2018-09-21T07:03:47.276Z,19.60
2018-09-21T07:07:20.516Z,19.47
2018-09-21T07:10:53.760Z,19.27
2018-09-21T07:14:27.005Z,18.07
2018-09-21T07:18:00.225Z,19.53
2018-09-21T07:21:33.477Z,18.00
2018-09-21T07:25:06.795Z,16.70
2018-09-21T07:28:40.075Z,17.03
2018-09-21T07:32:13.480Z,16.80
2018-09-21T07:35:47.200Z,17.80
2018-09-21T07:39:20.446Z,14.87
2018-09-21T07:42:53.715Z,16.00
2018-09-21T07:46:26.940Z,17.10
2018-09-21T07:50:00.176Z,16.00
2018-09-21T07:53:33.406Z,15.90
2018-09-21T07:57:06.696Z,15.33
2018-09-21T08:00:39.915Z,16.20
2018-09-21T08:04:13.140Z,15.40
2018-09-21T08:07:46.359Z,18.33
2018-09-21T08:11:19.567Z,15.03
2018-09-21T08:14:52.812Z,12.80
2018-09-21T08:18:26.044Z,13.17
2018-09-21T08:21:59.266Z,14.43
2018-09-21T08:25:32.494Z,12.80
2018-09-21T08:29:05.712Z,12.90
2018-09-21T08:32:38.949Z,13.83
2018-09-21T08:36:12.186Z,12.80
2018-09-21T08:39:45.399Z,12.27
2018-09-21T08:43:18.616Z,11.33
2018-09-21T08:46:51.836Z,11.97
2018-09-21T08:50:25.061Z,9.97
2018-09-21T08:53:58.287Z,11.23
2018-09-21T08:57:31.504Z,9.60
2018-09-21T09:01:04.773Z,10.47
2018-09-21T09:04:38.010Z,14.07
2018-09-21T09:08:11.228Z,9.70
2018-09-21T09:11:44.458Z,9.80
2018-09-21T09:15:17.679Z,9.73
2018-09-21T09:18:50.896Z,10.10
2018-09-21T09:22:24.128Z,10.00
2018-09-21T09:25:57.371Z,11.33
2018-09-21T09:29:30.626Z,9.43
2018-09-21T09:33:04.091Z,10.03
2018-09-21T09:36:37.309Z,8.63
2018-09-21T09:40:10.548Z,13.97
2018-09-21T09:43:43.773Z,7.60
2018-09-21T09:47:16.995Z,8.20
2018-09-21T09:50:50.232Z,6.90
2018-09-21T09:54:23.468Z,7.50
2018-09-21T09:57:56.688Z,7.57
2018-09-21T10:01:29.908Z,7.77
2018-09-21T10:05:03.308Z,8.17
2018-09-21T10:08:36.532Z,7.63
2018-09-21T10:12:09.751Z,8.43
2018-09-21T10:15:42.989Z,6.97
2018-09-21T10:19:16.199Z,8.50
2018-09-21T10:22:49.421Z,8.43
2018-09-21T10:26:22.637Z,8.17
2018-09-21T10:29:55.876Z,8.43
2018-09-21T10:33:29.258Z,7.77
2018-09-21T10:37:02.348Z,8.60
2018-09-21T10:40:35.588Z,8.03
2018-09-21T10:44:08.972Z,8.00
2018-09-21T10:47:42.204Z,8.13
2018-09-21T10:51:15.420Z,7.27
2018-09-21T10:54:48.676Z,8.97
2018-09-21T10:58:21.895Z,7.43
2018-09-21T11:01:55.112Z,8.07
2018-09-21T11:05:28.336Z,7.30
2018-09-21T11:09:01.558Z,7.80
2018-09-21T11:12:34.777Z,8.37
2018-09-21T11:16:08.860Z,12.03
2018-09-21T11:19:42.080Z,8.43
2018-09-21T11:23:15.300Z,8.67
2018-09-21T11:26:48.527Z,9.90
2018-09-21T11:30:21.759Z,13.93
2018-09-21T11:33:54.979Z,8.40
2018-09-21T11:37:28.212Z,7.73
2018-09-21T11:41:01.476Z,7.63
2018-09-21T11:44:34.668Z,7.40
2018-09-21T11:48:07.925Z,7.57
2018-09-21T11:51:41.160Z,6.30
2018-09-21T11:55:14.375Z,8.07
2018-09-21T11:58:47.912Z,6.50
2018-09-21T12:02:21.129Z,9.33
2018-09-21T12:05:54.357Z,7.13
2018-09-21T12:09:27.571Z,6.97
2018-09-21T12:13:00.783Z,6.93
2018-09-21T12:16:34.000Z,9.73
2018-09-21T12:20:07.228Z,6.93
2018-09-21T12:23:40.444Z,7.27
2018-09-21T12:27:13.708Z,7.80
2018-09-21T12:30:46.965Z,8.23
2018-09-21T12:34:20.171Z,6.03
2018-09-21T12:37:53.391Z,6.37
2018-09-21T12:41:26.607Z,6.80
2018-09-21T12:44:59.816Z,7.00
2018-09-21T12:48:33.041Z,7.10
2018-09-21T12:52:07.072Z,7.50
2018-09-21T12:55:40.280Z,7.90
2018-09-21T12:59:13.496Z,6.87
2018-09-21T13:02:46.809Z,7.50
2018-09-21T13:06:26.508Z,7.47
2018-09-21T13:09:59.732Z,9.10
2018-09-21T13:13:32.948Z,7.10
2018-09-21T13:17:06.164Z,7.20
2018-09-21T13:20:39.388Z,7.10
2018-09-21T13:24:12.621Z,7.60
2018-09-21T13:27:45.845Z,6.57
2018-09-21T13:31:19.083Z,7.23
2018-09-21T13:34:52.358Z,6.93
2018-09-21T13:38:25.596Z,7.53
2018-09-21T13:41:58.860Z,9.07
2018-09-21T13:45:32.073Z,12.47
2018-09-21T13:49:05.511Z,7.47
2018-09-21T13:52:38.736Z,7.70
2018-09-21T13:56:11.965Z,8.27
2018-09-21T13:59:45.196Z,9.40
2018-09-21T14:03:18.433Z,9.67
2018-09-21T14:06:51.660Z,9.77
2018-09-21T14:10:24.888Z,9.93
2018-09-21T14:13:58.112Z,9.47
2018-09-21T14:17:31.340Z,10.13
2018-09-21T14:21:04.563Z,9.40
2018-09-21T14:24:37.807Z,9.47
2018-09-21T14:28:11.021Z,9.63
2018-09-21T14:31:44.240Z,9.67
2018-09-21T14:35:17.507Z,9.50
2018-09-21T14:38:50.748Z,10.07
2018-09-21T14:42:23.993Z,10.20
2018-09-21T14:45:57.260Z,10.10
2018-09-21T14:49:30.489Z,10.00
2018-09-21T14:53:03.712Z,9.90
2018-09-21T14:56:36.933Z,9.83
2018-09-21T15:00:10.146Z,10.97
2018-09-21T15:03:43.381Z,9.90
2018-09-21T15:07:16.604Z,12.33
2018-09-21T15:10:49.819Z,9.47
2018-09-21T15:14:23.056Z,10.87
2018-09-21T15:17:56.295Z,12.40
2018-09-21T15:21:29.524Z,14.67
2018-09-21T15:25:02.776Z,13.33
2018-09-21T15:28:36.852Z,12.00
2018-09-21T15:32:10.101Z,12.70
2018-09-21T15:35:43.317Z,11.90
2018-09-21T15:39:16.595Z,12.93
2018-09-21T15:42:49.836Z,11.73
2018-09-21T15:46:23.577Z,12.43
2018-09-21T15:49:56.837Z,12.90
2018-09-21T15:53:30.068Z,13.70
2018-09-21T15:57:03.276Z,11.97
2018-09-21T16:00:36.865Z,13.17
2018-09-21T16:04:10.094Z,14.53
2018-09-21T16:07:43.308Z,13.03
2018-09-21T16:11:16.533Z,13.07
2018-09-21T16:14:49.769Z,15.37
2018-09-21T16:18:23.127Z,14.17
2018-09-21T16:21:56.365Z,12.47
2018-09-21T16:25:29.592Z,13.83
2018-09-21T16:29:02.848Z,10.80
2018-09-21T16:32:36.177Z,5.80
2018-09-21T16:36:09.436Z,3.10
2018-09-21T16:39:42.623Z,3.60
2018-09-21T16:43:15.853Z,5.03
2018-09-21T16:46:49.076Z,2.40
2018-09-21T16:50:22.285Z,1.57
2018-09-21T16:53:55.514Z,5.67
2018-09-21T16:57:28.781Z,5.53
2018-09-21T17:01:01.971Z,1.70
2018-09-21T17:04:35.239Z,3.43
2018-09-21T17:08:08.440Z,1.43
2018-09-21T17:11:41.655Z,1.60
2018-09-21T17:15:14.860Z,1.10
2018-09-21T17:18:48.060Z,1.97
2018-09-21T17:22:21.275Z,2.73
2018-09-21T17:25:54.630Z,2.40
2018-09-21T17:29:27.864Z,1.57
2018-09-21T17:33:01.089Z,1.50
2018-09-21T17:36:34.319Z,2.20
2018-09-21T17:40:07.536Z,2.53
2018-09-21T17:43:40.748Z,2.80
2018-09-21T17:47:13.976Z,2.47
2018-09-21T17:50:47.228Z,2.10
2018-09-21T17:54:20.452Z,2.07
2018-09-21T17:57:53.665Z,2.60
2018-09-21T18:01:27.260Z,3.13
2018-09-21T18:05:00.483Z,3.70
2018-09-21T18:08:33.703Z,4.80
2018-09-21T18:12:06.931Z,4.97
2018-09-21T18:15:40.144Z,2.30
2018-09-21T18:19:13.389Z,2.90
2018-09-21T18:22:46.662Z,3.37
2018-09-21T18:26:19.857Z,2.20
2018-09-21T18:29:53.083Z,5.40
2018-09-21T18:33:26.308Z,4.60
2018-09-21T18:36:59.842Z,3.13
2018-09-21T18:40:32.882Z,3.80
2018-09-21T18:44:06.756Z,3.93
2018-09-21T18:47:39.968Z,4.43
2018-09-21T18:51:13.207Z,4.37
2018-09-21T18:54:46.508Z,4.03
2018-09-21T18:58:19.741Z,4.97
2018-09-21T19:01:52.969Z,3.53
2018-09-21T19:05:26.241Z,3.00
2018-09-21T19:08:59.460Z,4.50
2018-09-21T19:12:32.695Z,3.00
2018-09-21T19:16:05.927Z,4.23
2018-09-21T19:19:39.177Z,5.73
2018-09-21T19:23:12.416Z,3.57
2018-09-21T19:26:45.636Z,4.33
2018-09-21T19:30:18.893Z,5.97
2018-09-21T19:33:52.132Z,2.33
2018-09-21T19:37:25.364Z,4.83
2018-09-21T19:40:58.581Z,3.40
2018-09-21T19:44:31.795Z,6.13
2018-09-21T19:48:05.408Z,4.93
2018-09-21T19:51:38.727Z,2.70
2018-09-21T19:55:11.959Z,5.30
2018-09-21T19:58:45.166Z,4.47
2018-09-21T20:02:18.395Z,4.23
2018-09-21T20:05:51.596Z,4.47
2018-09-21T20:09:24.825Z,4.20
2018-09-21T20:12:58.072Z,6.40
2018-09-21T20:16:31.341Z,4.47
2018-09-21T20:20:04.560Z,6.60
2018-09-21T20:23:38.048Z,3.37
2018-09-21T20:27:11.295Z,3.10
2018-09-21T20:30:49.935Z,2.37
2018-09-21T20:34:23.112Z,6.90
2018-09-21T20:37:56.340Z,3.60
2018-09-21T20:41:29.603Z,7.07
2018-09-21T20:45:02.839Z,7.30
2018-09-21T20:48:36.102Z,6.73
2018-09-21T20:52:09.335Z,5.97
2018-09-21T20:55:42.672Z,6.20
2018-09-21T20:59:15.945Z,6.80
2018-09-21T21:02:49.143Z,6.60
2018-09-21T21:06:22.384Z,5.50
2018-09-21T21:09:55.620Z,6.70
2018-09-21T21:13:28.885Z,4.37
2018-09-21T21:17:02.090Z,3.63
2018-09-21T21:20:35.334Z,6.60
2018-09-21T21:24:08.565Z,4.10
2018-09-21T21:27:41.776Z,5.77
2018-09-21T21:31:15.012Z,7.07
2018-09-21T21:34:48.220Z,5.73
2018-09-21T21:38:21.452Z,5.50
2018-09-21T21:41:54.675Z,5.73
2018-09-21T21:45:27.912Z,11.80
2018-09-21T21:49:01.124Z,5.37
2018-09-21T21:52:34.346Z,5.93
2018-09-21T21:56:07.572Z,7.30
2018-09-21T21:59:40.784Z,5.70
2018-09-21T22:03:13.999Z,6.30
2018-09-21T22:06:47.471Z,9.00
2018-09-21T22:10:20.708Z,6.10
2018-09-21T22:13:59.083Z,7.37
2018-09-21T22:17:32.320Z,7.10
2018-09-21T22:21:05.552Z,6.67
2018-09-21T22:24:38.753Z,9.47
2018-09-21T22:28:11.967Z,7.30
2018-09-21T22:31:45.192Z,8.07
2018-09-21T22:35:18.408Z,9.07
2018-09-21T22:38:51.617Z,5.67
2018-09-21T22:42:24.839Z,6.50
2018-09-21T22:45:58.057Z,8.90
2018-09-21T22:49:31.299Z,7.67
2018-09-21T22:53:04.519Z,5.70
2018-09-21T22:56:37.752Z,5.20
2018-09-21T23:00:10.975Z,5.20
2018-09-21T23:03:44.200Z,6.43
2018-09-21T23:07:17.419Z,5.60
2018-09-21T23:10:50.625Z,5.43
2018-09-21T23:14:23.852Z,4.60
2018-09-21T23:17:57.065Z,5.43
2018-09-21T23:21:30.302Z,4.40
2018-09-21T23:25:03.532Z,4.57
2018-09-21T23:28:36.786Z,7.27
2018-09-21T23:32:10.065Z,4.73
2018-09-21T23:35:43.281Z,5.60
2018-09-21T23:39:16.501Z,6.30
2018-09-21T23:42:49.708Z,4.13
2018-09-21T23:46:22.941Z,5.80
2018-09-21T23:49:56.153Z,4.23
2018-09-21T23:53:29.395Z,12.53
2018-09-21T23:57:02.609Z,3.40
